Midland, TX

3:31 PM CST on January 21, 2017 (GMT -0600)
Renaissance Estates | | Change Station
Active Advisory: Wind Advisory

Elev 2894 ft 31.90 °N, 102.30 °W | Updated 24 seconds ago

Clear
Clear
59.5 °F
Feels Like 59.5 °F
N
19.0
Wind Variable Wind from WNW
Gusts 22.4 mph

Today
High -- | Low -- °F
--% Chance of Precip.
Yesterday
High -- | Low -- °F
Precip. -- in
Pressure 29.51 in
Visibility 10.0 miles
Clouds Clear
Dew Point 36 °F
Humidity 41%
Rainfall 0.00 in
Snow Depth Not available.
7:47 AM 6:13 PM
Waning Crescent, 32% visible
METAR KMDD 212115Z AUTO 25028G32KT 10SM CLR 17/M02 A2951 RMK AO2 T01671018
Pressure 29.51 in
Visibility 10.0 miles
Clouds Clear
Dew Point 36 °F
Humidity 41%
Rainfall 0.00 in
Snow Depth Not available.
7:47 AM 6:13 PM
Waning Crescent, 32% visible
METAR KMDD 212115Z AUTO 25028G32KT 10SM CLR 17/M02 A2951 RMK AO2 T01671018

Get Your Daily Forecast Email!

Thanks for signing up!

Be on the lookout for a verification email in your inbox.

You'll start receiving the daily forecast at 8 AM.

×

10-Day Weather Forecast

Almanac

Astronomy

Jan. 21, 2017 Rise Set
Actual Time
Civil Twilight
Nautical Twilight
Astronomical Twilight
Moon
Length of Visible Light
Length of Day
Tomorrow will be .
, % of the Moon is Illuminated

Today's Extremes

State Highs State Lows

Community

WunderPhotos

Upload Photos

1,962,540 photos uploaded!

WunderBlog® & News

Nearby

Air Quality

  Air Quality AQ Index Pollutant
Not available.

Snow Depth

Station Depth Elevation

Earthquake Activity

City Distance Mag. Time & Date
Minimum magnitude displayed is 2.5.

Coastal Water Temperatures

Place Temperature

Stations

Nearby Weather Stations

Station Location Temp. Windchill Dew Point Humidity Wind Precip. Elev Updated Type
                   

Watches & Warnings

Wind Advisory
Issued: 2:01 PM MST Jan. 21, 2017 – National Weather Service

... Wind Advisory remains in effect until 6 am CST /5 am MST/
Sunday...

* timing... until 6 am CST /5 am MST/ Sunday.

* Winds... west 25 to 40 mph with gusts to around 55 mph.

* Impacts... secure lawn furniture... garbage cans or other
objects which could be blown about by the wind.

Precautionary/preparedness actions...

A Wind Advisory means that winds of 30 mph are expected. Winds
this strong can make driving difficult... especially for high
profile vehicles. Use extra caution.